aviador You're here:

UUEE Decoded Metar

MOSCOW/SHEREMETYEVO in RUSSIA
Report Time2017-04-24 13:00:00
UTC Time2017-04-24 13:13:01
Flight Rules vfr VFR
Wind310° at 12 kt
W.Decomp.*RWY 25: 7.7 kt HW 9.2 kt RCW
W.Rank310° ranks 20
Current wind is above 310° avg. (8.6)
Visibility9999 m
Phenomena:N/A
Clouds:Broken CB 040 Hf
Expected CloudBase > 2,400 ft AGL from Temp-Dew spread
Ceiling4,000 ft
Temp06°C (ISA -8)
Dew Point00°C (66% RH)
AAT-0.3°C
QNH1007 hPa
Density Alt-20 ft
Elevation623 ft
Report Wrong Elevation
Raw Report
UUEE 241300Z 31006MPS 9999 -SHRAGS BKN040CB 06/M00 Q1007
R24R/290145 R24L/290151 NOSIG=

Extra information for UUEE:More info

Metar Taf Metar & Taf Last 4 Metars F.Rules Stats Wind Profile Meteogram Temp Stats Airport Information Weather charts Add Link Nearby VenuesMetar ALERT Operation Metar Decoded Social comments